sensor_id;sensor_type;location;lat;lon;timestamp;P1;durP1;ratioP1;P2;durP2;ratioP2
9763;SDS011;4921;43.214;27.936;2023-04-19T00:02:13;5.43;;;4.47;;
9763;SDS011;4921;43.214;27.936;2023-04-19T00:04:40;5.07;;;4.57;;
9763;SDS011;4921;43.214;27.936;2023-04-19T00:07:09;7.17;;;4.87;;
9763;SDS011;4921;43.214;27.936;2023-04-19T00:09:37;6.27;;;4.37;;
9763;SDS011;4921;43.214;27.936;2023-04-19T00:12:04;6.10;;;4.70;;
9763;SDS011;4921;43.214;27.936;2023-04-19T00:14:32;7.87;;;4.97;;
9763;SDS011;4921;43.214;27.936;2023-04-19T00:16:58;7.47;;;5.07;;
9763;SDS011;4921;43.214;27.936;2023-04-19T00:19:25;7.07;;;4.83;;
9763;SDS011;4921;43.214;27.936;2023-04-19T00:21:52;8.47;;;4.77;;
9763;SDS011;4921;43.214;27.936;2023-04-19T00:24:19;11.37;;;5.13;;
9763;SDS011;4921;43.214;27.936;2023-04-19T00:26:48;5.47;;;4.97;;
9763;SDS011;4921;43.214;27.936;2023-04-19T00:29:15;4.80;;;4.30;;
9763;SDS011;4921;43.214;27.936;2023-04-19T00:31:41;7.50;;;4.70;;
9763;SDS011;4921;43.214;27.936;2023-04-19T00:34:08;5.03;;;4.63;;
9763;SDS011;4921;43.214;27.936;2023-04-19T00:36:35;8.60;;;4.80;;
9763;SDS011;4921;43.214;27.936;2023-04-19T00:39:02;8.03;;;4.47;;
9763;SDS011;4921;43.214;27.936;2023-04-19T00:41:30;4.73;;;4.27;;
9763;SDS011;4921;43.214;27.936;2023-04-19T00:43:58;8.97;;;5.10;;
9763;SDS011;4921;43.214;27.936;2023-04-19T00:46:25;6.20;;;5.00;;
9763;SDS011;4921;43.214;27.936;2023-04-19T00:48:53;12.23;;;5.33;;
9763;SDS011;4921;43.214;27.936;2023-04-19T00:51:20;6.93;;;5.10;;
9763;SDS011;4921;43.214;27.936;2023-04-19T00:53:47;8.67;;;5.20;;
9763;SDS011;4921;43.214;27.936;2023-04-19T00:56:14;7.90;;;5.50;;
9763;SDS011;4921;43.214;27.936;2023-04-19T00:58:43;7.10;;;5.50;;
9763;SDS011;4921;43.214;27.936;2023-04-19T01:01:11;7.80;;;5.43;;
9763;SDS011;4921;43.214;27.936;2023-04-19T01:03:38;7.00;;;6.27;;
9763;SDS011;4921;43.214;27.936;2023-04-19T01:06:05;8.13;;;6.20;;
9763;SDS011;4921;43.214;27.936;2023-04-19T01:08:32;7.60;;;6.20;;
9763;SDS011;4921;43.214;27.936;2023-04-19T01:11:00;7.30;;;6.60;;
9763;SDS011;4921;43.214;27.936;2023-04-19T01:13:27;10.40;;;6.77;;
9763;SDS011;4921;43.214;27.936;2023-04-19T01:15:54;9.53;;;7.13;;
9763;SDS011;4921;43.214;27.936;2023-04-19T01:18:23;13.37;;;8.20;;
9763;SDS011;4921;43.214;27.936;2023-04-19T01:20:50;13.03;;;7.43;;
9763;SDS011;4921;43.214;27.936;2023-04-19T01:23:19;11.00;;;7.63;;
9763;SDS011;4921;43.214;27.936;2023-04-19T01:25:46;14.57;;;8.00;;
9763;SDS011;4921;43.214;27.936;2023-04-19T01:28:12;9.87;;;7.40;;
9763;SDS011;4921;43.214;27.936;2023-04-19T01:30:39;12.53;;;7.57;;
9763;SDS011;4921;43.214;27.936;2023-04-19T01:33:07;11.27;;;7.70;;
9763;SDS011;4921;43.214;27.936;2023-04-19T01:35:34;10.40;;;7.53;;
9763;SDS011;4921;43.214;27.936;2023-04-19T01:38:00;12.10;;;7.70;;
9763;SDS011;4921;43.214;27.936;2023-04-19T01:40:29;8.67;;;7.63;;
9763;SDS011;4921;43.214;27.936;2023-04-19T01:42:56;9.53;;;8.10;;
9763;SDS011;4921;43.214;27.936;2023-04-19T01:45:23;10.47;;;7.60;;
9763;SDS011;4921;43.214;27.936;2023-04-19T01:47:50;9.00;;;8.10;;
9763;SDS011;4921;43.214;27.936;2023-04-19T01:50:17;10.33;;;8.53;;
9763;SDS011;4921;43.214;27.936;2023-04-19T01:52:44;10.53;;;8.50;;
9763;SDS011;4921;43.214;27.936;2023-04-19T01:55:11;13.90;;;8.97;;
9763;SDS011;4921;43.214;27.936;2023-04-19T01:57:39;13.93;;;9.03;;
9763;SDS011;4921;43.214;27.936;2023-04-19T02:00:07;11.13;;;9.03;;
9763;SDS011;4921;43.214;27.936;2023-04-19T02:02:36;12.73;;;9.03;;
9763;SDS011;4921;43.214;27.936;2023-04-19T02:05:03;14.00;;;8.93;;
9763;SDS011;4921;43.214;27.936;2023-04-19T02:07:31;14.30;;;8.83;;
9763;SDS011;4921;43.214;27.936;2023-04-19T02:09:58;11.17;;;8.73;;
9763;SDS011;4921;43.214;27.936;2023-04-19T02:12:25;13.67;;;8.77;;
9763;SDS011;4921;43.214;27.936;2023-04-19T02:14:55;14.57;;;9.33;;
9763;SDS011;4921;43.214;27.936;2023-04-19T02:17:22;15.27;;;9.83;;
9763;SDS011;4921;43.214;27.936;2023-04-19T02:19:49;12.60;;;9.27;;
9763;SDS011;4921;43.214;27.936;2023-04-19T02:22:17;12.17;;;9.53;;
9763;SDS011;4921;43.214;27.936;2023-04-19T02:24:44;11.03;;;9.63;;
9763;SDS011;4921;43.214;27.936;2023-04-19T02:27:11;11.40;;;9.53;;
9763;SDS011;4921;43.214;27.936;2023-04-19T02:29:38;11.30;;;9.27;;
9763;SDS011;4921;43.214;27.936;2023-04-19T02:32:07;11.63;;;9.77;;
9763;SDS011;4921;43.214;27.936;2023-04-19T02:34:34;12.00;;;9.20;;
9763;SDS011;4921;43.214;27.936;2023-04-19T02:37:01;12.50;;;9.90;;
9763;SDS011;4921;43.214;27.936;2023-04-19T02:39:28;12.03;;;9.90;;
9763;SDS011;4921;43.214;27.936;2023-04-19T02:41:55;11.77;;;10.10;;
9763;SDS011;4921;43.214;27.936;2023-04-19T02:44:22;14.20;;;10.73;;
9763;SDS011;4921;43.214;27.936;2023-04-19T02:46:49;14.30;;;9.77;;
9763;SDS011;4921;43.214;27.936;2023-04-19T02:49:18;11.27;;;9.73;;
9763;SDS011;4921;43.214;27.936;2023-04-19T02:51:46;12.97;;;10.37;;
9763;SDS011;4921;43.214;27.936;2023-04-19T02:54:13;11.40;;;9.20;;
9763;SDS011;4921;43.214;27.936;2023-04-19T02:56:40;12.10;;;9.47;;
9763;SDS011;4921;43.214;27.936;2023-04-19T02:59:07;10.03;;;9.00;;
9763;SDS011;4921;43.214;27.936;2023-04-19T03:01:34;10.67;;;9.50;;
9763;SDS011;4921;43.214;27.936;2023-04-19T03:04:01;12.77;;;8.47;;
9763;SDS011;4921;43.214;27.936;2023-04-19T03:06:29;11.10;;;9.13;;
9763;SDS011;4921;43.214;27.936;2023-04-19T03:08:57;12.17;;;9.23;;
9763;SDS011;4921;43.214;27.936;2023-04-19T03:11:24;11.03;;;9.33;;
9763;SDS011;4921;43.214;27.936;2023-04-19T03:13:51;12.33;;;9.17;;
9763;SDS011;4921;43.214;27.936;2023-04-19T03:16:18;11.20;;;9.27;;
9763;SDS011;4921;43.214;27.936;2023-04-19T03:18:45;18.63;;;9.17;;
9763;SDS011;4921;43.214;27.936;2023-04-19T03:21:12;13.07;;;9.00;;
9763;SDS011;4921;43.214;27.936;2023-04-19T03:23:40;12.00;;;9.20;;
9763;SDS011;4921;43.214;27.936;2023-04-19T03:26:07;13.70;;;9.97;;
9763;SDS011;4921;43.214;27.936;2023-04-19T03:28:34;15.07;;;8.90;;
9763;SDS011;4921;43.214;27.936;2023-04-19T03:31:01;12.63;;;9.00;;
9763;SDS011;4921;43.214;27.936;2023-04-19T03:33:28;10.67;;;8.93;;
9763;SDS011;4921;43.214;27.936;2023-04-19T03:35:55;14.83;;;9.23;;
9763;SDS011;4921;43.214;27.936;2023-04-19T03:38:22;10.57;;;8.50;;
9763;SDS011;4921;43.214;27.936;2023-04-19T03:40:50;11.50;;;8.87;;
9763;SDS011;4921;43.214;27.936;2023-04-19T03:43:17;15.77;;;8.83;;
9763;SDS011;4921;43.214;27.936;2023-04-19T03:45:44;10.70;;;9.20;;
9763;SDS011;4921;43.214;27.936;2023-04-19T03:48:11;11.27;;;8.30;;
9763;SDS011;4921;43.214;27.936;2023-04-19T03:50:38;12.17;;;8.97;;
9763;SDS011;4921;43.214;27.936;2023-04-19T03:53:05;12.80;;;8.40;;
9763;SDS011;4921;43.214;27.936;2023-04-19T03:55:32;10.53;;;8.23;;
9763;SDS011;4921;43.214;27.936;2023-04-19T03:58:01;8.70;;;7.80;;
9763;SDS011;4921;43.214;27.936;2023-04-19T04:00:27;11.67;;;8.60;;
9763;SDS011;4921;43.214;27.936;2023-04-19T04:02:55;12.27;;;9.57;;
9763;SDS011;4921;43.214;27.936;2023-04-19T04:05:22;13.90;;;8.60;;
9763;SDS011;4921;43.214;27.936;2023-04-19T04:07:49;9.50;;;8.13;;
9763;SDS011;4921;43.214;27.936;2023-04-19T04:10:16;10.67;;;8.30;;
9763;SDS011;4921;43.214;27.936;2023-04-19T04:12:43;10.97;;;8.40;;
9763;SDS011;4921;43.214;27.936;2023-04-19T04:15:11;9.30;;;8.17;;
9763;SDS011;4921;43.214;27.936;2023-04-19T04:17:38;11.77;;;8.73;;
9763;SDS011;4921;43.214;27.936;2023-04-19T04:20:05;7.60;;;6.90;;
9763;SDS011;4921;43.214;27.936;2023-04-19T04:22:34;10.83;;;7.37;;
9763;SDS011;4921;43.214;27.936;2023-04-19T04:25:01;10.83;;;8.07;;
9763;SDS011;4921;43.214;27.936;2023-04-19T04:27:28;8.97;;;8.00;;
9763;SDS011;4921;43.214;27.936;2023-04-19T04:29:55;13.50;;;8.47;;
9763;SDS011;4921;43.214;27.936;2023-04-19T04:32:24;8.20;;;7.40;;
9763;SDS011;4921;43.214;27.936;2023-04-19T04:34:51;7.87;;;6.70;;
9763;SDS011;4921;43.214;27.936;2023-04-19T04:37:18;7.97;;;7.03;;
9763;SDS011;4921;43.214;27.936;2023-04-19T04:39:45;7.80;;;7.00;;
9763;SDS011;4921;43.214;27.936;2023-04-19T04:42:12;8.20;;;7.37;;
9763;SDS011;4921;43.214;27.936;2023-04-19T04:44:39;8.80;;;7.47;;
9763;SDS011;4921;43.214;27.936;2023-04-19T04:47:06;8.27;;;7.43;;
9763;SDS011;4921;43.214;27.936;2023-04-19T04:49:35;10.53;;;7.17;;
9763;SDS011;4921;43.214;27.936;2023-04-19T04:52:02;10.00;;;6.97;;
9763;SDS011;4921;43.214;27.936;2023-04-19T04:54:30;8.43;;;6.80;;
9763;SDS011;4921;43.214;27.936;2023-04-19T04:56:58;3.47;;;3.27;;
9763;SDS011;4921;43.214;27.936;2023-04-19T04:59:25;10.07;;;6.77;;
9763;SDS011;4921;43.214;27.936;2023-04-19T05:01:52;8.57;;;6.83;;
9763;SDS011;4921;43.214;27.936;2023-04-19T05:04:19;8.47;;;6.50;;
9763;SDS011;4921;43.214;27.936;2023-04-19T05:06:47;5.30;;;4.80;;
9763;SDS011;4921;43.214;27.936;2023-04-19T05:09:14;6.33;;;4.93;;
9763;SDS011;4921;43.214;27.936;2023-04-19T05:11:41;5.10;;;4.60;;
9763;SDS011;4921;43.214;27.936;2023-04-19T05:14:08;4.77;;;4.37;;
9763;SDS011;4921;43.214;27.936;2023-04-19T05:16:35;4.73;;;4.33;;
9763;SDS011;4921;43.214;27.936;2023-04-19T05:19:02;4.67;;;4.27;;
9763;SDS011;4921;43.214;27.936;2023-04-19T05:21:29;4.40;;;4.10;;
9763;SDS011;4921;43.214;27.936;2023-04-19T05:23:57;4.27;;;3.87;;
9763;SDS011;4921;43.214;27.936;2023-04-19T05:26:24;5.17;;;4.23;;
9763;SDS011;4921;43.214;27.936;2023-04-19T05:28:51;3.77;;;3.57;;
9763;SDS011;4921;43.214;27.936;2023-04-19T05:31:18;3.90;;;3.60;;
9763;SDS011;4921;43.214;27.936;2023-04-19T05:33:45;3.70;;;3.40;;
9763;SDS011;4921;43.214;27.936;2023-04-19T05:36:12;3.60;;;3.30;;
9763;SDS011;4921;43.214;27.936;2023-04-19T05:38:39;3.80;;;3.50;;
9763;SDS011;4921;43.214;27.936;2023-04-19T05:41:10;3.70;;;3.50;;
9763;SDS011;4921;43.214;27.936;2023-04-19T05:43:38;2.93;;;2.70;;
9763;SDS011;4921;43.214;27.936;2023-04-19T05:46:05;3.40;;;3.20;;
9763;SDS011;4921;43.214;27.936;2023-04-19T05:48:32;3.13;;;2.93;;
9763;SDS011;4921;43.214;27.936;2023-04-19T05:50:59;3.23;;;3.00;;
9763;SDS011;4921;43.214;27.936;2023-04-19T05:53:26;3.80;;;3.50;;
9763;SDS011;4921;43.214;27.936;2023-04-19T05:55:53;3.70;;;3.40;;
9763;SDS011;4921;43.214;27.936;2023-04-19T05:58:21;3.00;;;2.80;;
9763;SDS011;4921;43.214;27.936;2023-04-19T06:00:48;3.60;;;3.30;;
9763;SDS011;4921;43.214;27.936;2023-04-19T06:03:17;3.00;;;2.80;;
9763;SDS011;4921;43.214;27.936;2023-04-19T06:05:43;4.03;;;3.70;;
9763;SDS011;4921;43.214;27.936;2023-04-19T06:08:11;3.43;;;2.73;;
9763;SDS011;4921;43.214;27.936;2023-04-19T06:10:40;6.23;;;3.50;;
9763;SDS011;4921;43.214;27.936;2023-04-19T06:13:08;3.63;;;3.30;;
9763;SDS011;4921;43.214;27.936;2023-04-19T06:15:36;3.63;;;3.20;;
9763;SDS011;4921;43.214;27.936;2023-04-19T06:18:04;3.43;;;3.13;;
9763;SDS011;4921;43.214;27.936;2023-04-19T06:20:34;4.03;;;3.67;;
9763;SDS011;4921;43.214;27.936;2023-04-19T06:30:32;3.50;;;3.20;;
9763;SDS011;4921;43.214;27.936;2023-04-19T06:35:49;3.40;;;3.20;;
9763;SDS011;4921;43.214;27.936;2023-04-19T06:38:33;4.77;;;4.30;;
9763;SDS011;4921;43.214;27.936;2023-04-19T06:41:36;5.43;;;3.23;;
9763;SDS011;4921;43.214;27.936;2023-04-19T06:47:12;4.23;;;3.87;;
9763;SDS011;4921;43.214;27.936;2023-04-19T06:50:04;5.53;;;4.93;;
9763;SDS011;4921;43.214;27.936;2023-04-19T06:52:52;5.10;;;4.70;;
9763;SDS011;4921;43.214;27.936;2023-04-19T06:55:52;5.33;;;4.93;;
9763;SDS011;4921;43.214;27.936;2023-04-19T06:58:24;7.17;;;5.00;;
9763;SDS011;4921;43.214;27.936;2023-04-19T07:00:51;6.23;;;4.53;;
9763;SDS011;4921;43.214;27.936;2023-04-19T07:03:17;5.07;;;4.43;;
9763;SDS011;4921;43.214;27.936;2023-04-19T07:05:46;5.23;;;4.53;;
9763;SDS011;4921;43.214;27.936;2023-04-19T07:08:13;6.00;;;5.07;;
9763;SDS011;4921;43.214;27.936;2023-04-19T07:10:44;8.73;;;6.80;;
9763;SDS011;4921;43.214;27.936;2023-04-19T07:13:11;9.10;;;6.47;;
9763;SDS011;4921;43.214;27.936;2023-04-19T07:15:38;6.73;;;6.03;;
9763;SDS011;4921;43.214;27.936;2023-04-19T07:18:05;7.30;;;6.07;;
9763;SDS011;4921;43.214;27.936;2023-04-19T07:20:34;6.33;;;5.73;;
9763;SDS011;4921;43.214;27.936;2023-04-19T07:23:02;10.47;;;6.10;;
9763;SDS011;4921;43.214;27.936;2023-04-19T07:25:29;6.80;;;6.20;;
9763;SDS011;4921;43.214;27.936;2023-04-19T07:27:56;6.43;;;5.83;;
9763;SDS011;4921;43.214;27.936;2023-04-19T07:30:23;7.00;;;6.30;;
9763;SDS011;4921;43.214;27.936;2023-04-19T07:32:50;7.00;;;6.00;;
9763;SDS011;4921;43.214;27.936;2023-04-19T07:35:17;10.23;;;7.80;;
9763;SDS011;4921;43.214;27.936;2023-04-19T07:37:45;7.03;;;6.33;;
9763;SDS011;4921;43.214;27.936;2023-04-19T07:40:13;7.23;;;5.47;;
9763;SDS011;4921;43.214;27.936;2023-04-19T07:42:41;9.43;;;8.23;;
9763;SDS011;4921;43.214;27.936;2023-04-19T07:45:08;11.53;;;8.63;;
9763;SDS011;4921;43.214;27.936;2023-04-19T07:47:36;6.53;;;5.73;;
9763;SDS011;4921;43.214;27.936;2023-04-19T07:50:03;6.03;;;5.30;;
9763;SDS011;4921;43.214;27.936;2023-04-19T07:52:31;7.50;;;5.33;;
9763;SDS011;4921;43.214;27.936;2023-04-19T07:54:58;5.37;;;4.23;;
9763;SDS011;4921;43.214;27.936;2023-04-19T07:57:27;3.33;;;3.03;;
9763;SDS011;4921;43.214;27.936;2023-04-19T07:59:54;3.13;;;2.93;;
9763;SDS011;4921;43.214;27.936;2023-04-19T08:02:24;3.17;;;2.97;;
9763;SDS011;4921;43.214;27.936;2023-04-19T08:04:51;6.63;;;4.57;;
9763;SDS011;4921;43.214;27.936;2023-04-19T08:07:18;5.37;;;4.00;;
9763;SDS011;4921;43.214;27.936;2023-04-19T08:09:47;4.20;;;3.90;;
9763;SDS011;4921;43.214;27.936;2023-04-19T08:12:14;3.80;;;3.50;;
9763;SDS011;4921;43.214;27.936;2023-04-19T08:14:44;6.43;;;4.17;;
9763;SDS011;4921;43.214;27.936;2023-04-19T08:17:11;7.20;;;4.50;;
9763;SDS011;4921;43.214;27.936;2023-04-19T08:19:40;5.43;;;4.93;;
9763;SDS011;4921;43.214;27.936;2023-04-19T08:22:07;4.57;;;4.27;;
9763;SDS011;4921;43.214;27.936;2023-04-19T08:24:34;6.37;;;5.50;;
9763;SDS011;4921;43.214;27.936;2023-04-19T08:27:01;7.50;;;6.70;;
9763;SDS011;4921;43.214;27.936;2023-04-19T08:29:29;11.70;;;6.33;;
9763;SDS011;4921;43.214;27.936;2023-04-19T08:31:59;7.27;;;6.53;;
9763;SDS011;4921;43.214;27.936;2023-04-19T08:34:26;8.87;;;7.73;;
9763;SDS011;4921;43.214;27.936;2023-04-19T08:36:53;9.80;;;8.67;;
9763;SDS011;4921;43.214;27.936;2023-04-19T08:39:20;10.43;;;8.87;;
9763;SDS011;4921;43.214;27.936;2023-04-19T08:41:47;10.93;;;8.30;;
9763;SDS011;4921;43.214;27.936;2023-04-19T08:44:15;15.33;;;10.60;;
9763;SDS011;4921;43.214;27.936;2023-04-19T08:46:44;11.37;;;9.37;;
9763;SDS011;4921;43.214;27.936;2023-04-19T08:49:14;9.30;;;8.20;;
9763;SDS011;4921;43.214;27.936;2023-04-19T08:51:44;5.63;;;4.70;;
9763;SDS011;4921;43.214;27.936;2023-04-19T08:54:12;5.37;;;4.00;;
9763;SDS011;4921;43.214;27.936;2023-04-19T08:56:40;2.80;;;2.60;;
9763;SDS011;4921;43.214;27.936;2023-04-19T08:59:07;6.07;;;2.43;;
9763;SDS011;4921;43.214;27.936;2023-04-19T09:01:34;1.70;;;1.60;;
9763;SDS011;4921;43.214;27.936;2023-04-19T09:04:02;1.17;;;1.17;;
9763;SDS011;4921;43.214;27.936;2023-04-19T09:06:35;1.60;;;1.40;;
9763;SDS011;4921;43.214;27.936;2023-04-19T09:11:46;1.30;;;1.30;;
9763;SDS011;4921;43.214;27.936;2023-04-19T09:14:14;1.10;;;1.10;;
9763;SDS011;4921;43.214;27.936;2023-04-19T09:16:43;1.10;;;1.10;;
9763;SDS011;4921;43.214;27.936;2023-04-19T09:19:10;1.00;;;1.00;;
9763;SDS011;4921;43.214;27.936;2023-04-19T09:21:39;2.77;;;0.90;;
9763;SDS011;4921;43.214;27.936;2023-04-19T09:24:06;1.83;;;1.10;;
9763;SDS011;4921;43.214;27.936;2023-04-19T09:26:34;1.30;;;1.30;;
9763;SDS011;4921;43.214;27.936;2023-04-19T09:29:02;1.20;;;1.10;;
9763;SDS011;4921;43.214;27.936;2023-04-19T09:31:31;1.57;;;1.10;;
9763;SDS011;4921;43.214;27.936;2023-04-19T09:34:10;1.03;;;1.03;;
9763;SDS011;4921;43.214;27.936;2023-04-19T09:36:39;0.90;;;0.90;;
9763;SDS011;4921;43.214;27.936;2023-04-19T09:39:07;0.90;;;0.90;;
9763;SDS011;4921;43.214;27.936;2023-04-19T09:41:35;1.37;;;1.10;;
9763;SDS011;4921;43.214;27.936;2023-04-19T09:47:24;0.93;;;0.90;;
9763;SDS011;4921;43.214;27.936;2023-04-19T09:50:14;1.00;;;1.00;;
9763;SDS011;4921;43.214;27.936;2023-04-19T09:52:53;0.80;;;0.80;;
9763;SDS011;4921;43.214;27.936;2023-04-19T09:55:26;1.00;;;1.00;;
9763;SDS011;4921;43.214;27.936;2023-04-19T09:57:56;3.70;;;1.33;;
9763;SDS011;4921;43.214;27.936;2023-04-19T10:00:23;2.23;;;1.40;;
9763;SDS011;4921;43.214;27.936;2023-04-19T10:02:51;1.40;;;1.30;;
9763;SDS011;4921;43.214;27.936;2023-04-19T10:05:22;1.53;;;1.43;;
9763;SDS011;4921;43.214;27.936;2023-04-19T10:07:49;0.87;;;0.87;;
9763;SDS011;4921;43.214;27.936;2023-04-19T10:10:19;4.67;;;1.50;;
9763;SDS011;4921;43.214;27.936;2023-04-19T10:12:47;3.67;;;1.43;;
9763;SDS011;4921;43.214;27.936;2023-04-19T10:15:16;2.33;;;1.30;;
9763;SDS011;4921;43.214;27.936;2023-04-19T10:17:45;1.80;;;0.93;;
9763;SDS011;4921;43.214;27.936;2023-04-19T10:20:16;0.90;;;0.90;;
9763;SDS011;4921;43.214;27.936;2023-04-19T10:22:48;1.50;;;1.10;;
9763;SDS011;4921;43.214;27.936;2023-04-19T10:25:15;1.60;;;1.10;;
9763;SDS011;4921;43.214;27.936;2023-04-19T10:27:44;3.50;;;1.07;;
9763;SDS011;4921;43.214;27.936;2023-04-19T10:30:16;1.37;;;0.80;;
9763;SDS011;4921;43.214;27.936;2023-04-19T10:32:45;0.97;;;0.90;;
9763;SDS011;4921;43.214;27.936;2023-04-19T10:35:19;1.43;;;1.33;;
9763;SDS011;4921;43.214;27.936;2023-04-19T10:38:04;0.90;;;0.90;;
9763;SDS011;4921;43.214;27.936;2023-04-19T10:43:27;2.07;;;0.90;;
9763;SDS011;4921;43.214;27.936;2023-04-19T10:45:55;2.13;;;1.20;;
9763;SDS011;4921;43.214;27.936;2023-04-19T10:48:35;1.40;;;1.30;;
9763;SDS011;4921;43.214;27.936;2023-04-19T10:51:05;3.13;;;1.30;;
9763;SDS011;4921;43.214;27.936;2023-04-19T10:53:42;1.73;;;1.33;;
9763;SDS011;4921;43.214;27.936;2023-04-19T10:56:10;2.60;;;1.30;;
9763;SDS011;4921;43.214;27.936;2023-04-19T11:01:52;1.30;;;1.30;;
9763;SDS011;4921;43.214;27.936;2023-04-19T11:04:22;1.10;;;1.00;;
9763;SDS011;4921;43.214;27.936;2023-04-19T11:07:10;1.90;;;1.30;;
9763;SDS011;4921;43.214;27.936;2023-04-19T11:09:38;1.30;;;1.20;;
9763;SDS011;4921;43.214;27.936;2023-04-19T11:12:10;2.00;;;1.53;;
9763;SDS011;4921;43.214;27.936;2023-04-19T11:14:40;2.33;;;1.40;;
9763;SDS011;4921;43.214;27.936;2023-04-19T11:17:18;1.37;;;1.33;;
9763;SDS011;4921;43.214;27.936;2023-04-19T11:19:52;1.37;;;1.37;;
9763;SDS011;4921;43.214;27.936;2023-04-19T11:22:23;3.37;;;1.83;;
9763;SDS011;4921;43.214;27.936;2023-04-19T11:24:51;3.80;;;1.60;;
9763;SDS011;4921;43.214;27.936;2023-04-19T11:27:18;2.40;;;1.50;;
9763;SDS011;4921;43.214;27.936;2023-04-19T11:29:46;1.30;;;1.30;;
9763;SDS011;4921;43.214;27.936;2023-04-19T11:32:13;1.20;;;1.20;;
9763;SDS011;4921;43.214;27.936;2023-04-19T11:34:40;1.60;;;1.50;;
9763;SDS011;4921;43.214;27.936;2023-04-19T11:37:08;1.50;;;1.43;;
9763;SDS011;4921;43.214;27.936;2023-04-19T11:39:43;1.33;;;1.23;;
9763;SDS011;4921;43.214;27.936;2023-04-19T11:42:15;1.60;;;1.50;;
9763;SDS011;4921;43.214;27.936;2023-04-19T11:44:48;1.10;;;1.10;;
9763;SDS011;4921;43.214;27.936;2023-04-19T11:47:16;1.93;;;1.60;;
9763;SDS011;4921;43.214;27.936;2023-04-19T11:49:44;1.40;;;1.40;;
9763;SDS011;4921;43.214;27.936;2023-04-19T11:52:11;1.47;;;1.47;;
9763;SDS011;4921;43.214;27.936;2023-04-19T11:54:46;2.20;;;1.90;;
9763;SDS011;4921;43.214;27.936;2023-04-19T11:57:13;2.70;;;2.50;;
9763;SDS011;4921;43.214;27.936;2023-04-19T11:59:41;2.40;;;2.30;;
9763;SDS011;4921;43.214;27.936;2023-04-19T12:02:35;3.20;;;3.00;;
9763;SDS011;4921;43.214;27.936;2023-04-19T12:05:06;3.30;;;3.10;;
9763;SDS011;4921;43.214;27.936;2023-04-19T12:07:34;3.80;;;3.50;;
9763;SDS011;4921;43.214;27.936;2023-04-19T12:10:07;4.07;;;3.80;;
9763;SDS011;4921;43.214;27.936;2023-04-19T12:12:35;4.37;;;3.97;;
9763;SDS011;4921;43.214;27.936;2023-04-19T12:15:05;4.87;;;4.40;;
9763;SDS011;4921;43.214;27.936;2023-04-19T12:17:33;5.43;;;4.50;;
9763;SDS011;4921;43.214;27.936;2023-04-19T12:20:00;5.20;;;4.80;;
9763;SDS011;4921;43.214;27.936;2023-04-19T12:22:28;5.13;;;4.70;;
9763;SDS011;4921;43.214;27.936;2023-04-19T12:24:55;4.93;;;4.43;;
9763;SDS011;4921;43.214;27.936;2023-04-19T12:27:22;4.63;;;4.23;;
9763;SDS011;4921;43.214;27.936;2023-04-19T12:29:50;6.23;;;4.90;;
9763;SDS011;4921;43.214;27.936;2023-04-19T12:32:18;4.97;;;4.57;;
9763;SDS011;4921;43.214;27.936;2023-04-19T12:34:45;6.30;;;5.13;;
9763;SDS011;4921;43.214;27.936;2023-04-19T12:37:12;5.67;;;5.17;;
9763;SDS011;4921;43.214;27.936;2023-04-19T12:39:39;8.13;;;4.77;;
9763;SDS011;4921;43.214;27.936;2023-04-19T12:42:06;8.23;;;5.20;;
9763;SDS011;4921;43.214;27.936;2023-04-19T12:44:33;6.17;;;5.67;;
9763;SDS011;4921;43.214;27.936;2023-04-19T12:47:00;7.03;;;5.80;;
9763;SDS011;4921;43.214;27.936;2023-04-19T12:49:28;7.20;;;5.87;;
9763;SDS011;4921;43.214;27.936;2023-04-19T12:51:55;7.67;;;5.53;;
9763;SDS011;4921;43.214;27.936;2023-04-19T12:54:22;6.47;;;5.87;;
9763;SDS011;4921;43.214;27.936;2023-04-19T12:56:49;7.23;;;5.67;;
9763;SDS011;4921;43.214;27.936;2023-04-19T12:59:16;5.73;;;5.17;;
9763;SDS011;4921;43.214;27.936;2023-04-19T13:01:43;8.57;;;6.30;;
9763;SDS011;4921;43.214;27.936;2023-04-19T13:04:10;7.97;;;5.10;;
9763;SDS011;4921;43.214;27.936;2023-04-19T13:06:38;6.30;;;4.40;;
9763;SDS011;4921;43.214;27.936;2023-04-19T13:09:05;6.20;;;4.83;;
9763;SDS011;4921;43.214;27.936;2023-04-19T13:11:32;4.73;;;4.10;;
9763;SDS011;4921;43.214;27.936;2023-04-19T13:13:59;4.83;;;3.70;;
9763;SDS011;4921;43.214;27.936;2023-04-19T13:16:26;6.77;;;4.30;;
9763;SDS011;4921;43.214;27.936;2023-04-19T13:18:53;5.90;;;3.80;;
9763;SDS011;4921;43.214;27.936;2023-04-19T13:21:20;4.20;;;3.80;;
9763;SDS011;4921;43.214;27.936;2023-04-19T13:23:49;5.27;;;3.80;;
9763;SDS011;4921;43.214;27.936;2023-04-19T13:26:17;4.47;;;4.00;;
9763;SDS011;4921;43.214;27.936;2023-04-19T13:28:44;3.73;;;3.33;;
9763;SDS011;4921;43.214;27.936;2023-04-19T13:31:11;4.57;;;3.70;;
9763;SDS011;4921;43.214;27.936;2023-04-19T13:33:38;5.07;;;3.77;;
9763;SDS011;4921;43.214;27.936;2023-04-19T13:36:06;3.57;;;3.23;;
9763;SDS011;4921;43.214;27.936;2023-04-19T13:38:33;6.10;;;3.33;;
9763;SDS011;4921;43.214;27.936;2023-04-19T13:41:01;4.13;;;3.00;;
9763;SDS011;4921;43.214;27.936;2023-04-19T13:43:29;4.13;;;2.97;;
9763;SDS011;4921;43.214;27.936;2023-04-19T13:45:56;2.83;;;2.63;;
9763;SDS011;4921;43.214;27.936;2023-04-19T13:48:23;4.47;;;2.90;;
9763;SDS011;4921;43.214;27.936;2023-04-19T13:50:51;3.47;;;2.40;;
9763;SDS011;4921;43.214;27.936;2023-04-19T13:53:19;3.83;;;2.77;;
9763;SDS011;4921;43.214;27.936;2023-04-19T13:55:46;2.83;;;2.63;;
9763;SDS011;4921;43.214;27.936;2023-04-19T13:58:14;3.73;;;2.70;;
9763;SDS011;4921;43.214;27.936;2023-04-19T14:00:41;2.80;;;2.50;;
9763;SDS011;4921;43.214;27.936;2023-04-19T14:03:08;2.30;;;2.13;;
9763;SDS011;4921;43.214;27.936;2023-04-19T14:05:35;5.47;;;2.90;;
9763;SDS011;4921;43.214;27.936;2023-04-19T14:08:02;4.00;;;2.30;;
9763;SDS011;4921;43.214;27.936;2023-04-19T14:10:30;3.67;;;2.63;;
9763;SDS011;4921;43.214;27.936;2023-04-19T14:12:57;4.50;;;3.03;;
9763;SDS011;4921;43.214;27.936;2023-04-19T14:15:25;6.30;;;2.77;;
9763;SDS011;4921;43.214;27.936;2023-04-19T14:17:52;3.63;;;2.37;;
9763;SDS011;4921;43.214;27.936;2023-04-19T14:20:19;3.53;;;2.60;;
9763;SDS011;4921;43.214;27.936;2023-04-19T14:22:46;4.77;;;2.83;;
9763;SDS011;4921;43.214;27.936;2023-04-19T14:25:13;3.73;;;2.87;;
9763;SDS011;4921;43.214;27.936;2023-04-19T14:27:42;5.87;;;2.77;;
9763;SDS011;4921;43.214;27.936;2023-04-19T14:30:09;3.07;;;2.70;;
9763;SDS011;4921;43.214;27.936;2023-04-19T14:32:37;7.47;;;3.20;;
9763;SDS011;4921;43.214;27.936;2023-04-19T14:35:05;4.63;;;3.30;;
9763;SDS011;4921;43.214;27.936;2023-04-19T14:37:35;10.70;;;3.20;;
9763;SDS011;4921;43.214;27.936;2023-04-19T14:40:02;5.97;;;3.33;;
9763;SDS011;4921;43.214;27.936;2023-04-19T14:42:29;8.13;;;3.40;;
9763;SDS011;4921;43.214;27.936;2023-04-19T14:44:56;5.27;;;3.20;;
9763;SDS011;4921;43.214;27.936;2023-04-19T14:47:23;7.60;;;4.00;;
9763;SDS011;4921;43.214;27.936;2023-04-19T14:49:52;4.40;;;3.40;;
9763;SDS011;4921;43.214;27.936;2023-04-19T14:52:19;5.13;;;3.70;;
9763;SDS011;4921;43.214;27.936;2023-04-19T14:54:46;10.80;;;3.50;;
9763;SDS011;4921;43.214;27.936;2023-04-19T14:57:13;6.07;;;3.83;;
9763;SDS011;4921;43.214;27.936;2023-04-19T14:59:40;4.63;;;3.60;;
9763;SDS011;4921;43.214;27.936;2023-04-19T15:02:07;6.97;;;3.50;;
9763;SDS011;4921;43.214;27.936;2023-04-19T15:04:34;8.17;;;3.70;;
9763;SDS011;4921;43.214;27.936;2023-04-19T15:07:03;6.40;;;3.63;;
9763;SDS011;4921;43.214;27.936;2023-04-19T15:09:30;8.03;;;4.67;;
9763;SDS011;4921;43.214;27.936;2023-04-19T15:11:57;9.43;;;4.50;;
9763;SDS011;4921;43.214;27.936;2023-04-19T15:14:25;4.63;;;4.23;;
9763;SDS011;4921;43.214;27.936;2023-04-19T15:16:52;9.17;;;4.80;;
9763;SDS011;4921;43.214;27.936;2023-04-19T15:19:19;5.33;;;4.00;;
9763;SDS011;4921;43.214;27.936;2023-04-19T15:21:46;7.73;;;4.53;;
9763;SDS011;4921;43.214;27.936;2023-04-19T15:24:14;7.87;;;4.60;;
9763;SDS011;4921;43.214;27.936;2023-04-19T15:26:41;8.20;;;4.57;;
9763;SDS011;4921;43.214;27.936;2023-04-19T15:29:09;5.97;;;4.03;;
9763;SDS011;4921;43.214;27.936;2023-04-19T15:31:36;6.20;;;4.57;;